Time;durP1;ratioP1;P1;durP2;ratioP2;P2;SDS_P1;SDS_P2;PMS_P1;PMS_P2;Temp;Humidity;BMP_temperature;BMP_pressure;BME280_temperature;BME280_humidity;BME280_pressure;Samples;Min_cycle;Max_cycle;Signal;HPM_P1;HPM_P2
2021/12/30 00:00:50;;;;;;;2.47;0.70;;;11.40;60.30;;;;;;5182787;27;34451;-78
2021/12/30 00:03:17;;;;;;;5.85;0.95;;;11.40;60.30;;;;;;5165249;27;35198;-78
2021/12/30 00:05:43;;;;;;;3.97;1.08;;;11.40;60.30;;;;;;5182435;27;34125;-77
2021/12/30 00:08:10;;;;;;;3.42;1.33;;;11.50;60.70;;;;;;5147217;27;34207;-78
2021/12/30 00:10:37;;;;;;;5.57;1.40;;;11.50;60.80;;;;;;5165905;27;34245;-78
2021/12/30 00:13:04;;;;;;;3.40;0.60;;;11.50;60.70;;;;;;5147791;27;35314;-77
2021/12/30 00:15:30;;;;;;;5.00;1.02;;;11.60;60.60;;;;;;5147280;27;34474;-78
2021/12/30 00:17:57;;;;;;;3.42;0.90;;;11.60;60.30;;;;;;5146480;27;34467;-77
2021/12/30 00:20:23;;;;;;;7.00;1.10;;;11.60;60.20;;;;;;5166327;27;34255;-78
2021/12/30 00:22:49;;;;;;;2.83;0.70;;;11.60;60.30;;;;;;5182059;27;35837;-77
2021/12/30 00:25:16;;;;;;;1.73;0.75;;;11.60;60.40;;;;;;5147161;27;34289;-78
2021/12/30 00:27:42;;;;;;;3.72;0.90;;;11.70;60.50;;;;;;5181779;27;34442;-78
2021/12/30 00:30:10;;;;;;;1.63;0.73;;;11.60;60.30;;;;;;5147117;27;34291;-78
2021/12/30 00:32:36;;;;;;;2.78;0.82;;;11.70;60.50;;;;;;5164798;27;35671;-77
2021/12/30 00:35:04;;;;;;;3.10;0.98;;;11.70;60.50;;;;;;5181724;27;34146;-77
2021/12/30 00:37:30;;;;;;;6.38;0.93;;;11.70;60.50;;;;;;5147086;27;34405;-78
2021/12/30 00:39:56;;;;;;;3.92;1.08;;;11.60;60.30;;;;;;5116654;27;34166;-78
2021/12/30 00:42:22;;;;;;;3.03;0.98;;;11.60;60.30;;;;;;5161208;27;36032;-78
2021/12/30 00:44:48;;;;;;;2.20;1.00;;;11.60;60.30;;;;;;5160895;27;34213;-78
2021/12/30 00:47:14;;;;;;;2.15;0.82;;;11.60;60.30;;;;;;5143536;27;34291;-78
2021/12/30 00:49:41;;;;;;;7.80;0.80;;;11.60;60.30;;;;;;5144871;27;34331;-78
2021/12/30 00:52:07;;;;;;;6.43;1.42;;;11.60;60.40;;;;;;5108925;27;36105;-78
2021/12/30 00:54:33;;;;;;;3.55;1.08;;;11.60;60.60;;;;;;5147156;27;34516;-78
2021/12/30 00:56:59;;;;;;;3.83;0.90;;;11.60;60.60;;;;;;5142281;27;34193;-78
2021/12/30 00:59:26;;;;;;;3.40;1.00;;;11.60;60.60;;;;;;5129500;27;34387;-78
2021/12/30 01:01:52;;;;;;;2.20;1.17;;;11.70;60.70;;;;;;5164347;27;35612;-78
2021/12/30 01:04:20;;;;;;;1.55;0.80;;;11.70;60.70;;;;;;5164521;27;34365;-78
2021/12/30 01:06:46;;;;;;;2.20;0.70;;;11.70;60.70;;;;;;5163918;27;34339;-78
2021/12/30 01:09:12;;;;;;;4.40;0.80;;;11.70;60.70;;;;;;5164909;27;34335;-78
2021/12/30 01:11:39;;;;;;;11.57;1.08;;;11.70;60.70;;;;;;5147657;27;34540;-78
2021/12/30 01:14:15;;;;;;;1.70;0.98;;;11.70;60.70;;;;;;5129723;27;34232;-78
2021/12/30 01:16:44;;;;;;;4.07;1.08;;;11.70;60.70;;;;;;5148586;27;34326;-78
2021/12/30 01:19:24;;;;;;;3.05;0.90;;;11.70;60.70;;;;;;5147578;27;34184;-78
2021/12/30 01:21:53;;;;;;;2.28;1.30;;;11.70;60.90;;;;;;5148471;27;36333;-78
2021/12/30 01:24:20;;;;;;;1.77;0.75;;;11.70;61.00;;;;;;5164101;27;34200;-78
2021/12/30 01:26:46;;;;;;;5.78;1.20;;;11.70;61.00;;;;;;5163700;27;34122;-78
2021/12/30 01:29:13;;;;;;;4.15;1.05;;;11.80;61.10;;;;;;5147194;27;34123;-78
2021/12/30 01:31:39;;;;;;;4.22;0.88;;;11.80;61.20;;;;;;5164308;27;35719;-78
2021/12/30 01:34:05;;;;;;;3.85;0.98;;;11.80;62.10;;;;;;5163211;27;34133;-77
2021/12/30 01:36:31;;;;;;;4.93;1.25;;;11.80;61.10;;;;;;5163907;27;34170;-77
2021/12/30 01:38:57;;;;;;;3.38;0.95;;;11.90;61.60;;;;;;5151340;27;34343;-77
2021/12/30 01:41:24;;;;;;;3.67;1.00;;;12.00;61.50;;;;;;5149751;27;35937;-77
2021/12/30 01:43:50;;;;;;;5.00;1.17;;;12.00;62.20;;;;;;5162107;27;34125;-77
2021/12/30 01:46:17;;;;;;;5.63;1.15;;;12.00;61.30;;;;;;5142447;27;34150;-77
2021/12/30 01:48:43;;;;;;;2.63;0.80;;;12.00;61.40;;;;;;5184524;27;34675;-77
2021/12/30 01:51:10;;;;;;;1.48;0.75;;;12.00;61.60;;;;;;5166424;27;36139;-77
2021/12/30 01:53:37;;;;;;;2.10;1.10;;;12.00;61.50;;;;;;5166803;27;34125;-77
2021/12/30 01:56:04;;;;;;;3.65;0.80;;;12.10;61.80;;;;;;5184278;27;34191;-77
2021/12/30 01:58:31;;;;;;;6.25;1.05;;;12.10;61.80;;;;;;5149708;27;34070;-77
2021/12/30 02:00:57;;;;;;;2.40;1.00;;;12.20;61.70;;;;;;5149289;27;35614;-77
2021/12/30 02:03:24;;;;;;;2.38;0.80;;;12.20;61.70;;;;;;5183571;27;34230;-77
2021/12/30 02:05:51;;;;;;;4.55;1.00;;;12.30;61.90;;;;;;5184102;27;34359;-77
2021/12/30 02:08:19;;;;;;;1.33;0.75;;;12.30;62.00;;;;;;5149401;27;34413;-77
2021/12/30 02:10:47;;;;;;;1.52;0.75;;;12.40;61.90;;;;;;5167046;27;34312;-78
2021/12/30 02:13:15;;;;;;;1.48;0.75;;;12.40;61.80;;;;;;5184137;27;34487;-78
2021/12/30 02:15:42;;;;;;;1.60;0.65;;;12.40;62.00;;;;;;5149137;27;34370;-77
2021/12/30 02:18:08;;;;;;;1.10;0.75;;;12.50;62.10;;;;;;5167707;27;34364;-78
2021/12/30 02:20:49;;;;;;;2.40;0.63;;;12.50;62.10;;;;;;5183287;27;36060;-77
2021/12/30 02:23:22;;;;;;;5.30;0.60;;;12.50;62.50;;;;;;5148964;27;34140;-77
2021/12/30 02:25:51;;;;;;;1.85;0.70;;;12.60;62.30;;;;;;5165879;27;34337;-77
2021/12/30 02:28:19;;;;;;;1.30;0.80;;;12.60;62.20;;;;;;5167344;27;34373;-78
2021/12/30 02:30:46;;;;;;;2.45;0.52;;;12.70;62.50;;;;;;5182884;27;35705;-77
2021/12/30 02:33:13;;;;;;;0.60;0.40;;;12.70;62.50;;;;;;5166883;27;34152;-77
2021/12/30 02:35:39;;;;;;;0.52;0.50;;;12.80;63.20;;;;;;5166811;27;34392;-77
2021/12/30 02:38:06;;;;;;;2.45;0.70;;;12.90;63.10;;;;;;5166447;27;34174;-77
2021/12/30 02:40:38;;;;;;;2.70;0.57;;;12.90;62.70;;;;;;5166693;27;35500;-77
2021/12/30 02:43:07;;;;;;;0.68;0.38;;;12.90;62.60;;;;;;5184458;27;34164;-77
2021/12/30 02:45:34;;;;;;;1.02;0.40;;;13.00;62.50;;;;;;5167332;27;34280;-77
2021/12/30 02:48:00;;;;;;;0.68;0.38;;;13.00;62.60;;;;;;5149083;27;34092;-77
2021/12/30 02:50:27;;;;;;;0.60;0.60;;;13.00;62.90;;;;;;5168817;27;34478;-78
2021/12/30 02:52:53;;;;;;;0.40;0.40;;;13.10;62.80;;;;;;5184838;27;34171;-77
2021/12/30 02:55:19;;;;;;;20.67;1.15;;;13.10;62.80;;;;;;5167622;27;34266;-77
2021/12/30 02:57:45;;;;;;;0.50;0.38;;;13.10;62.60;;;;;;5184684;27;34532;-77
2021/12/30 03:00:11;;;;;;;5.70;0.40;;;13.10;62.90;;;;;;5166848;27;36683;-77
2021/12/30 03:02:39;;;;;;;1.30;0.55;;;13.20;62.80;;;;;;5168305;27;34194;-77
2021/12/30 03:05:08;;;;;;;0.68;0.50;;;13.20;62.80;;;;;;5183793;27;34205;-77
2021/12/30 03:07:35;;;;;;;0.40;0.40;;;13.20;62.80;;;;;;5166743;27;34190;-78
2021/12/30 03:10:02;;;;;;;1.58;0.60;;;13.20;62.80;;;;;;5184454;27;35756;-78
2021/12/30 03:12:28;;;;;;;1.42;0.40;;;13.30;63.00;;;;;;5168843;27;34385;-78
2021/12/30 03:14:56;;;;;;;0.30;0.30;;;13.20;62.70;;;;;;5166715;27;34148;-77
2021/12/30 03:17:22;;;;;;;0.75;0.43;;;13.30;63.00;;;;;;5132363;27;34108;-77
2021/12/30 03:19:52;;;;;;;1.95;0.40;;;13.30;63.00;;;;;;5148903;27;36602;-78
2021/12/30 03:22:18;;;;;;;0.40;0.40;;;13.20;62.80;;;;;;5166691;27;34115;-77
2021/12/30 03:24:44;;;;;;;0.35;0.35;;;13.20;62.80;;;;;;5149598;27;34216;-77
2021/12/30 03:27:10;;;;;;;0.75;0.30;;;13.30;63.20;;;;;;5167377;27;34173;-77
2021/12/30 03:29:36;;;;;;;2.75;0.40;;;13.30;63.20;;;;;;5165491;27;36029;-78
2021/12/30 03:32:03;;;;;;;0.40;0.30;;;13.30;63.10;;;;;;5147910;27;34529;-77
2021/12/30 03:34:29;;;;;;;0.20;0.20;;;13.30;63.00;;;;;;5149439;27;34220;-78
2021/12/30 03:36:55;;;;;;;0.30;0.30;;;13.30;63.00;;;;;;5147986;27;34372;-77
2021/12/30 03:39:21;;;;;;;0.85;0.38;;;13.40;63.30;;;;;;5147469;27;36519;-77
2021/12/30 03:41:53;;;;;;;1.02;0.40;;;13.40;63.10;;;;;;5165513;27;34389;-78
2021/12/30 03:44:19;;;;;;;0.17;0.17;;;13.40;63.20;;;;;;5182377;27;34389;-77
2021/12/30 03:46:45;;;;;;;1.27;0.38;;;13.50;63.40;;;;;;5147391;27;34419;-77
2021/12/30 03:49:11;;;;;;;2.70;0.60;;;13.50;63.30;;;;;;5147137;27;36005;-77
2021/12/30 03:51:39;;;;;;;0.30;0.30;;;13.50;63.70;;;;;;5147099;27;34211;-77
2021/12/30 03:54:06;;;;;;;0.20;0.20;;;13.50;63.80;;;;;;5147810;27;34094;-77
2021/12/30 03:56:34;;;;;;;0.28;0.28;;;13.60;63.90;;;;;;5182094;27;34469;-77
2021/12/30 03:59:00;;;;;;;0.25;0.25;;;13.70;63.90;;;;;;5147199;27;35278;-78
2021/12/30 04:01:27;;;;;;;1.38;0.35;;;13.70;63.60;;;;;;5165821;27;34117;-77
2021/12/30 04:03:54;;;;;;;0.28;0.28;;;13.80;63.60;;;;;;5148047;27;34297;-78
2021/12/30 04:06:20;;;;;;;1.20;0.30;;;13.80;63.50;;;;;;5182948;27;34346;-77
2021/12/30 04:08:47;;;;;;;0.40;0.40;;;13.80;63.20;;;;;;5182178;27;35674;-77
2021/12/30 04:11:13;;;;;;;0.43;0.40;;;13.80;63.20;;;;;;5147924;27;34390;-78
2021/12/30 04:13:40;;;;;;;0.10;0.10;;;13.80;63.20;;;;;;5182180;27;34448;-78
2021/12/30 04:16:06;;;;;;;0.28;0.13;;;13.80;63.50;;;;;;5165106;27;34222;-78
2021/12/30 04:18:32;;;;;;;0.30;0.30;;;13.90;63.70;;;;;;5181578;27;35725;-78
2021/12/30 04:20:58;;;;;;;0.38;0.30;;;13.90;63.70;;;;;;5182208;27;34261;-78
2021/12/30 04:23:25;;;;;;;0.20;0.20;;;14.00;63.60;;;;;;5165572;27;34581;-77
2021/12/30 04:25:51;;;;;;;0.60;0.35;;;14.00;63.70;;;;;;5146345;27;34503;-77
2021/12/30 04:28:17;;;;;;;0.10;0.10;;;14.00;63.60;;;;;;5164845;27;34927;-77
2021/12/30 04:30:43;;;;;;;0.63;0.30;;;14.00;63.70;;;;;;5146603;27;34236;-77
2021/12/30 04:33:09;;;;;;;0.10;0.10;;;14.00;63.80;;;;;;5181567;27;34145;-77
2021/12/30 04:35:35;;;;;;;0.30;0.30;;;14.00;63.80;;;;;;5181902;27;34402;-77
2021/12/30 04:38:01;;;;;;;0.20;0.20;;;14.10;63.90;;;;;;5164816;27;34158;-78
2021/12/30 04:40:28;;;;;;;0.20;0.20;;;14.10;63.80;;;;;;5165046;27;34087;-78
2021/12/30 04:42:55;;;;;;;3.50;0.45;;;14.20;63.70;;;;;;5181450;27;34244;-77
2021/12/30 04:45:21;;;;;;;0.30;0.30;;;14.20;63.60;;;;;;5181763;27;34172;-78
2021/12/30 04:47:47;;;;;;;0.10;0.10;;;14.20;63.70;;;;;;5163563;27;35996;-77
2021/12/30 04:50:14;;;;;;;1.45;0.28;;;14.20;63.70;;;;;;5146899;27;34392;-77
2021/12/30 04:52:41;;;;;;;2.45;0.20;;;14.20;63.60;;;;;;5164127;27;34340;-77
2021/12/30 04:55:08;;;;;;;0.10;0.10;;;14.20;63.60;;;;;;5163844;27;34368;-78
2021/12/30 04:57:34;;;;;;;0.10;0.10;;;14.30;63.90;;;;;;5164162;27;36246;-77
2021/12/30 05:00:00;;;;;;;0.17;0.17;;;14.30;63.90;;;;;;5145745;27;34082;-77
2021/12/30 05:02:36;;;;;;;0.45;0.13;;;14.30;63.90;;;;;;5181131;27;34125;-77
2021/12/30 05:05:02;;;;;;;0.10;0.10;;;14.30;63.80;;;;;;5181198;27;34303;-77
2021/12/30 05:07:28;;;;;;;0.20;0.20;;;14.40;63.90;;;;;;5163508;27;35627;-77
2021/12/30 05:09:55;;;;;;;0.15;0.10;;;14.40;63.90;;;;;;5164825;27;34076;-77
2021/12/30 05:12:21;;;;;;;1.27;0.20;;;14.40;63.90;;;;;;5129412;27;34185;-77
2021/12/30 05:14:47;;;;;;;2.83;0.22;;;14.40;63.80;;;;;;5128353;27;34482;-77
2021/12/30 05:17:14;;;;;;;1.35;0.30;;;14.40;63.80;;;;;;5181259;27;35956;-78
2021/12/30 05:19:40;;;;;;;0.55;0.10;;;14.40;63.70;;;;;;5165166;27;34190;-78
2021/12/30 05:22:06;;;;;;;0.10;0.00;;;14.40;63.80;;;;;;5181908;27;34167;-78
2021/12/30 05:24:32;;;;;;;0.20;0.20;;;14.40;63.70;;;;;;5146631;27;34830;-78
2021/12/30 05:26:58;;;;;;;0.15;0.15;;;14.40;63.70;;;;;;5047493;27;35754;-77
2021/12/30 05:29:24;;;;;;;0.20;0.20;;;14.40;63.90;;;;;;5128958;27;34188;-77
2021/12/30 05:31:50;;;;;;;0.00;0.00;;;14.40;63.70;;;;;;5151356;27;34341;-78
2021/12/30 05:34:16;;;;;;;0.08;0.08;;;14.40;63.70;;;;;;5147031;27;34223;-77
2021/12/30 05:36:42;;;;;;;0.10;0.10;;;14.40;63.90;;;;;;5146243;27;36542;-78
2021/12/30 05:39:08;;;;;;;3.50;0.20;;;14.40;63.90;;;;;;5139567;27;34256;-78
2021/12/30 05:41:34;;;;;;;0.20;0.20;;;14.40;64.10;;;;;;5131777;27;34323;-78
2021/12/30 05:44:00;;;;;;;0.20;0.20;;;14.40;64.00;;;;;;5126749;27;34220;-78
2021/12/30 05:46:27;;;;;;;0.20;0.20;;;14.50;64.10;;;;;;5166669;27;35752;-78
2021/12/30 05:48:53;;;;;;;0.10;0.10;;;14.50;64.10;;;;;;5184336;27;34511;-78
2021/12/30 05:51:19;;;;;;;0.30;0.30;;;14.50;64.90;;;;;;5150522;27;34460;-77
2021/12/30 05:53:46;;;;;;;0.10;0.10;;;14.60;64.00;;;;;;5150258;27;34346;-78
2021/12/30 05:56:12;;;;;;;0.45;0.10;;;14.60;63.80;;;;;;5167195;27;35613;-78
2021/12/30 05:58:38;;;;;;;0.22;0.10;;;14.60;63.80;;;;;;5167792;27;34351;-78
2021/12/30 06:01:04;;;;;;;0.43;0.30;;;14.60;63.80;;;;;;5132643;27;34266;-78
2021/12/30 06:03:30;;;;;;;0.10;0.10;;;14.60;63.70;;;;;;5144386;27;34221;-77
2021/12/30 06:05:56;;;;;;;0.13;0.13;;;14.60;63.80;;;;;;5184215;27;36365;-77
2021/12/30 06:08:22;;;;;;;0.20;0.20;;;14.60;63.80;;;;;;5167106;27;34167;-77
2021/12/30 06:10:48;;;;;;;0.40;0.17;;;14.50;63.70;;;;;;5076107;27;34370;-78
2021/12/30 06:13:14;;;;;;;0.22;0.22;;;14.50;63.80;;;;;;5185131;27;34089;-78
2021/12/30 06:15:40;;;;;;;0.20;0.20;;;14.50;63.80;;;;;;5149365;27;35684;-77
2021/12/30 06:18:06;;;;;;;0.10;0.10;;;14.50;63.80;;;;;;5184658;27;34319;-77
2021/12/30 06:20:33;;;;;;;0.20;0.20;;;14.50;63.70;;;;;;5184420;27;34116;-77
2021/12/30 06:22:59;;;;;;;0.22;0.22;;;14.50;63.90;;;;;;5132355;27;34278;-78
2021/12/30 06:25:25;;;;;;;0.10;0.10;;;14.50;64.00;;;;;;5184111;27;36372;-78
2021/12/30 06:27:51;;;;;;;0.20;0.20;;;14.50;63.80;;;;;;5184332;27;34050;-78
2021/12/30 06:30:17;;;;;;;0.30;0.30;;;14.50;63.90;;;;;;5168076;27;34229;-78
2021/12/30 06:32:45;;;;;;;1.13;0.15;;;14.40;63.60;;;;;;5171184;27;34266;-78
2021/12/30 06:35:11;;;;;;;0.20;0.20;;;14.40;63.60;;;;;;5171148;27;35778;-78
2021/12/30 06:37:38;;;;;;;0.20;0.20;;;14.40;63.70;;;;;;5171642;27;34383;-78
2021/12/30 06:40:06;;;;;;;0.20;0.20;;;14.40;63.70;;;;;;5151944;27;34233;-78
2021/12/30 06:42:32;;;;;;;1.75;0.20;;;14.40;63.70;;;;;;5135220;27;34138;-78
2021/12/30 06:44:58;;;;;;;0.20;0.20;;;14.40;63.50;;;;;;5112801;27;36079;-78
2021/12/30 06:47:24;;;;;;;0.30;0.30;;;14.40;63.70;;;;;;5151021;27;34137;-78
2021/12/30 06:49:58;;;;;;;0.10;0.10;;;14.30;63.80;;;;;;5138195;27;34412;-78
2021/12/30 06:52:24;;;;;;;0.20;0.20;;;14.30;63.80;;;;;;5169792;27;34061;-78
2021/12/30 06:54:50;;;;;;;0.30;0.30;;;14.30;64.00;;;;;;5168682;27;36579;-78
2021/12/30 06:57:16;;;;;;;0.22;0.22;;;14.30;64.00;;;;;;5152116;27;34426;-78
2021/12/30 06:59:42;;;;;;;1.08;0.20;;;14.40;63.90;;;;;;5151941;27;34401;-78
2021/12/30 07:02:08;;;;;;;0.25;0.25;;;14.40;63.80;;;;;;5169758;27;34289;-78
2021/12/30 07:04:35;;;;;;;0.52;0.40;;;14.40;63.80;;;;;;5169349;27;36352;-78
2021/12/30 07:07:01;;;;;;;0.30;0.15;;;14.40;63.70;;;;;;5168977;27;34133;-78
2021/12/30 07:09:28;;;;;;;0.20;0.20;;;14.40;63.60;;;;;;5168997;27;34145;-78
2021/12/30 07:11:54;;;;;;;0.22;0.22;;;14.30;63.70;;;;;;5151665;27;34151;-78
2021/12/30 07:14:22;;;;;;;0.20;0.20;;;14.40;63.80;;;;;;5151597;27;36190;-79
2021/12/30 07:16:48;;;;;;;0.40;0.13;;;14.40;63.70;;;;;;5151547;27;34107;-78
2021/12/30 07:19:15;;;;;;;0.20;0.20;;;14.30;63.70;;;;;;5168938;27;34093;-78
2021/12/30 07:21:41;;;;;;;0.20;0.20;;;14.30;63.80;;;;;;5151624;27;34094;-78
2021/12/30 07:24:08;;;;;;;0.20;0.20;;;14.30;64.00;;;;;;5168178;27;35603;-78
2021/12/30 07:26:34;;;;;;;0.30;0.30;;;14.40;64.00;;;;;;5151353;27;34282;-78
2021/12/30 07:29:01;;;;;;;3.30;0.40;;;14.40;63.90;;;;;;5151472;27;34356;-78
2021/12/30 07:31:28;;;;;;;1.83;0.30;;;14.40;63.90;;;;;;5169304;27;34550;-78
2021/12/30 07:33:54;;;;;;;0.30;0.30;;;14.40;63.80;;;;;;5168803;27;35910;-78
2021/12/30 07:36:20;;;;;;;1.55;0.30;;;14.40;63.80;;;;;;5168793;27;34049;-78
2021/12/30 07:38:48;;;;;;;0.30;0.30;;;14.40;63.80;;;;;;5168200;27;34328;-78
2021/12/30 07:41:14;;;;;;;0.93;0.30;;;14.40;63.80;;;;;;5151455;27;34136;-78
2021/12/30 07:43:41;;;;;;;0.30;0.30;;;14.40;63.80;;;;;;5168778;27;35821;-78
2021/12/30 07:46:09;;;;;;;2.10;0.50;;;14.40;63.80;;;;;;5150682;27;34267;-77
2021/12/30 07:48:36;;;;;;;0.47;0.30;;;14.40;63.70;;;;;;5168529;27;34181;-78
2021/12/30 07:51:03;;;;;;;1.55;0.30;;;14.40;63.90;;;;;;5167779;27;34359;-78
2021/12/30 07:53:29;;;;;;;0.22;0.20;;;14.40;63.80;;;;;;5168396;27;36062;-78
2021/12/30 07:55:55;;;;;;;1.38;0.22;;;14.40;63.80;;;;;;5187176;27;34245;-78
2021/12/30 07:58:21;;;;;;;0.63;0.30;;;14.40;64.60;;;;;;5168148;27;34473;-78
2021/12/30 08:00:48;;;;;;;0.20;0.20;;;14.40;63.90;;;;;;5149529;27;34444;-78
2021/12/30 08:03:14;;;;;;;0.20;0.20;;;14.50;64.00;;;;;;5186944;27;34948;-78
2021/12/30 08:05:40;;;;;;;1.23;0.30;;;14.50;63.90;;;;;;5167761;27;34307;-78
2021/12/30 08:08:06;;;;;;;0.20;0.20;;;14.60;63.90;;;;;;5186598;27;34166;-78
2021/12/30 08:10:32;;;;;;;0.85;0.20;;;14.60;63.80;;;;;;5150775;27;34292;-78
2021/12/30 08:12:59;;;;;;;0.32;0.30;;;14.60;63.80;;;;;;5133370;27;36508;-77
2021/12/30 08:15:25;;;;;;;1.20;0.30;;;14.60;63.70;;;;;;5168327;27;34232;-78
2021/12/30 08:17:51;;;;;;;0.30;0.30;;;14.70;63.80;;;;;;5167410;27;34389;-78
2021/12/30 08:20:18;;;;;;;0.88;0.47;;;14.70;63.70;;;;;;5168162;27;34412;-77
2021/12/30 08:22:45;;;;;;;0.65;0.40;;;14.70;63.80;;;;;;5149968;27;35734;-78
2021/12/30 08:25:12;;;;;;;1.10;0.60;;;14.70;63.70;;;;;;5167731;27;34248;-77
2021/12/30 08:27:39;;;;;;;0.40;0.30;;;14.70;63.60;;;;;;5167338;27;34763;-77
2021/12/30 08:30:09;;;;;;;0.38;0.38;;;14.70;63.80;;;;;;5167744;27;34128;-78
2021/12/30 08:32:35;;;;;;;1.20;0.55;;;14.70;63.70;;;;;;5167800;27;35794;-78
2021/12/30 08:35:02;;;;;;;0.50;0.30;;;14.70;63.70;;;;;;5167010;27;34192;-78
2021/12/30 08:37:28;;;;;;;0.65;0.40;;;14.70;63.70;;;;;;5167124;27;34168;-77
2021/12/30 08:39:55;;;;;;;0.30;0.30;;;14.70;63.80;;;;;;5155413;27;34449;-78
2021/12/30 08:42:24;;;;;;;0.80;0.40;;;14.80;63.70;;;;;;5129108;27;35582;-77
2021/12/30 08:44:53;;;;;;;0.40;0.40;;;14.80;63.70;;;;;;5164635;27;34193;-78
2021/12/30 08:47:19;;;;;;;0.30;0.30;;;14.80;63.60;;;;;;5146852;27;34264;-77
2021/12/30 08:49:46;;;;;;;0.20;0.20;;;14.80;63.50;;;;;;5129312;27;34423;-78
2021/12/30 08:52:15;;;;;;;0.30;0.30;;;14.80;63.40;;;;;;5146565;27;35826;-77
2021/12/30 08:54:42;;;;;;;0.57;0.30;;;14.80;63.40;;;;;;5165062;27;34262;-77
2021/12/30 08:57:09;;;;;;;0.30;0.30;;;14.90;63.50;;;;;;5129384;27;34443;-77
2021/12/30 08:59:35;;;;;;;0.28;0.28;;;14.80;63.40;;;;;;5165587;27;34266;-77
2021/12/30 09:02:02;;;;;;;0.60;0.60;;;14.90;63.50;;;;;;5145491;27;35522;-78
2021/12/30 09:04:29;;;;;;;0.28;0.28;;;14.90;63.50;;;;;;5146910;27;34582;-77
2021/12/30 09:06:55;;;;;;;0.40;0.28;;;14.90;63.50;;;;;;5146747;27;34409;-77
2021/12/30 09:09:21;;;;;;;1.10;0.30;;;14.90;63.50;;;;;;5146896;27;34139;-77
2021/12/30 09:11:48;;;;;;;0.40;0.40;;;14.90;63.50;;;;;;5145495;27;36111;-77
2021/12/30 09:14:14;;;;;;;0.40;0.40;;;14.90;63.70;;;;;;5167498;27;34178;-77
2021/12/30 09:16:41;;;;;;;0.20;0.20;;;14.80;63.50;;;;;;5150183;27;34389;-78
2021/12/30 09:19:07;;;;;;;0.40;0.40;;;14.90;63.70;;;;;;5132521;27;34059;-78
2021/12/30 09:21:38;;;;;;;2.22;0.40;;;14.90;63.70;;;;;;5150130;27;36321;-77
2021/12/30 09:24:05;;;;;;;0.22;0.20;;;15.00;63.60;;;;;;5169924;27;34198;-77
2021/12/30 09:26:32;;;;;;;0.40;0.40;;;15.00;63.50;;;;;;5150515;27;34347;-77
2021/12/30 09:28:58;;;;;;;0.30;0.30;;;15.00;63.50;;;;;;5150349;27;34156;-78
2021/12/30 09:31:24;;;;;;;2.00;0.50;;;15.10;63.50;;;;;;5150361;27;36357;-77
2021/12/30 09:33:50;;;;;;;0.45;0.25;;;15.10;63.50;;;;;;5169211;27;34376;-77
2021/12/30 09:36:17;;;;;;;0.32;0.30;;;15.20;63.40;;;;;;5150056;27;34054;-77
2021/12/30 09:38:43;;;;;;;0.50;0.38;;;15.30;63.30;;;;;;5169310;27;34077;-77
2021/12/30 09:41:09;;;;;;;1.38;0.17;;;15.30;63.30;;;;;;5189760;27;34196;-77
2021/12/30 09:43:35;;;;;;;0.20;0.20;;;15.30;63.20;;;;;;5171299;27;34262;-77
2021/12/30 09:46:02;;;;;;;0.20;0.20;;;15.40;63.20;;;;;;5170056;27;34400;-77
2021/12/30 09:48:28;;;;;;;0.73;0.43;;;15.40;63.10;;;;;;5189512;27;34097;-77
2021/12/30 09:50:54;;;;;;;0.20;0.20;;;15.40;63.10;;;;;;5152658;27;35559;-77
2021/12/30 09:53:23;;;;;;;0.30;0.30;;;15.40;63.10;;;;;;5153409;27;34284;-78
2021/12/30 09:55:51;;;;;;;0.90;0.43;;;15.40;63.10;;;;;;5153381;27;34193;-77
2021/12/30 09:58:18;;;;;;;0.30;0.30;;;15.40;63.20;;;;;;5171028;27;34941;-77
2021/12/30 10:00:46;;;;;;;0.55;0.30;;;15.40;63.20;;;;;;5189237;27;34249;-77
2021/12/30 10:03:12;;;;;;;0.30;0.20;;;15.50;63.30;;;;;;5172575;27;34233;-77
2021/12/30 10:05:41;;;;;;;0.30;0.30;;;15.50;63.30;;;;;;5171400;27;34441;-77
2021/12/30 10:08:16;;;;;;;0.30;0.30;;;15.50;63.30;;;;;;5154626;27;34471;-77
2021/12/30 10:10:45;;;;;;;0.40;0.30;;;15.60;63.10;;;;;;5154182;27;35875;-77
2021/12/30 10:13:31;;;;;;;0.32;0.30;;;15.50;63.20;;;;;;5133056;27;34093;-77
2021/12/30 10:16:01;;;;;;;1.10;0.40;;;15.60;63.10;;;;;;5179976;27;34193;-77
2021/12/30 10:18:48;;;;;;;0.30;0.30;;;15.60;63.10;;;;;;5171191;27;34399;-78
2021/12/30 10:21:20;;;;;;;0.30;0.30;;;15.60;62.90;;;;;;5152563;27;35811;-78
2021/12/30 10:23:49;;;;;;;1.48;0.22;;;15.60;62.90;;;;;;5137113;27;34046;-77
2021/12/30 10:26:15;;;;;;;0.30;0.30;;;15.60;62.90;;;;;;5171744;27;34174;-78
2021/12/30 10:28:43;;;;;;;1.35;0.32;;;15.60;63.00;;;;;;5171636;27;34038;-80
2021/12/30 10:31:19;;;;;;;0.68;0.28;;;15.60;63.00;;;;;;5190549;27;34310;-78
2021/12/30 10:33:52;;;;;;;2.28;0.30;;;15.60;62.80;;;;;;5154173;27;34028;-78
2021/12/30 10:36:29;;;;;;;0.40;0.40;;;15.60;62.90;;;;;;5154061;27;34136;-78
2021/12/30 10:39:18;;;;;;;0.30;0.30;;;15.60;62.80;;;;;;5137929;27;34425;-78
2021/12/30 10:41:46;;;;;;;0.30;0.30;;;15.70;62.90;;;;;;5189484;27;34477;-77
2021/12/30 10:44:12;;;;;;;0.40;0.30;;;15.70;62.80;;;;;;5170325;27;34211;-78
2021/12/30 10:46:38;;;;;;;0.88;0.32;;;15.70;62.80;;;;;;5169548;27;34287;-78
2021/12/30 10:49:08;;;;;;;0.40;0.40;;;15.70;62.60;;;;;;5170414;27;35421;-77
2021/12/30 10:51:46;;;;;;;0.55;0.55;;;15.70;62.50;;;;;;5188414;27;34330;-78
2021/12/30 10:54:18;;;;;;;0.40;0.40;;;15.80;62.50;;;;;;5171218;27;34281;-78
2021/12/30 10:56:47;;;;;;;0.32;0.32;;;15.80;62.30;;;;;;5169758;27;34405;-78
2021/12/30 10:59:17;;;;;;;0.30;0.30;;;15.80;62.30;;;;;;5151774;27;34118;-78
2021/12/30 11:01:49;;;;;;;0.68;0.38;;;15.80;62.10;;;;;;5152193;27;36792;-78
2021/12/30 11:04:15;;;;;;;0.80;0.50;;;15.90;62.20;;;;;;5151823;27;34319;-78
2021/12/30 11:07:00;;;;;;;0.80;0.63;;;15.80;62.00;;;;;;5152303;27;34221;-78
2021/12/30 11:09:26;;;;;;;0.30;0.30;;;15.80;62.00;;;;;;5157565;27;34395;-78
2021/12/30 11:11:58;;;;;;;0.40;0.40;;;15.90;62.10;;;;;;5168795;27;35536;-79
2021/12/30 11:14:30;;;;;;;0.45;0.30;;;15.90;61.90;;;;;;5152831;27;34226;-78
2021/12/30 11:17:05;;;;;;;0.63;0.50;;;15.90;61.80;;;;;;5152579;27;34300;-78
2021/12/30 11:19:35;;;;;;;0.65;0.45;;;15.90;61.70;;;;;;5136552;27;34352;-78
2021/12/30 11:22:07;;;;;;;0.73;0.40;;;16.00;61.50;;;;;;5169437;27;35560;-78
2021/12/30 11:24:34;;;;;;;1.15;0.70;;;16.00;61.20;;;;;;5169412;27;34327;-78
2021/12/30 11:27:03;;;;;;;0.50;0.50;;;16.00;61.40;;;;;;5188530;27;34566;-78
2021/12/30 11:29:30;;;;;;;0.75;0.40;;;16.00;61.40;;;;;;5189353;27;34213;-78
2021/12/30 11:31:57;;;;;;;0.93;0.60;;;16.00;61.20;;;;;;5169215;27;35936;-79
2021/12/30 11:34:24;;;;;;;1.15;0.63;;;16.10;61.30;;;;;;5169790;27;34408;-79
2021/12/30 11:36:52;;;;;;;1.63;0.47;;;16.10;61.30;;;;;;5151388;27;34269;-78
2021/12/30 11:39:21;;;;;;;0.47;0.40;;;16.10;61.30;;;;;;5169213;27;34545;-79
2021/12/30 11:41:55;;;;;;;0.82;0.60;;;16.10;61.20;;;;;;5168575;27;35691;-78
2021/12/30 11:44:39;;;;;;;0.75;0.55;;;16.10;61.00;;;;;;5169211;27;34352;-78
2021/12/30 11:47:09;;;;;;;1.33;0.70;;;16.00;60.60;;;;;;5188112;27;34224;-78
2021/12/30 11:49:52;;;;;;;3.45;0.80;;;16.10;61.20;;;;;;5153461;27;34130;-78
2021/12/30 11:52:49;;;;;;;0.60;0.60;;;16.00;60.60;;;;;;5147159;27;34126;-79
2021/12/30 11:55:45;;;;;;;1.65;0.40;;;16.00;60.20;;;;;;5140857;27;34340;-78
2021/12/30 11:58:41;;;;;;;1.27;0.70;;;16.00;60.60;;;;;;5151416;27;34082;-79
2021/12/30 12:01:28;;;;;;;2.05;0.60;;;15.90;61.00;;;;;;5151212;27;34327;-78
2021/12/30 12:04:01;;;;;;;0.88;0.45;;;15.90;60.90;;;;;;5154909;27;35537;-79
2021/12/30 12:06:47;;;;;;;1.60;0.50;;;15.90;61.10;;;;;;5151625;27;34354;-79
2021/12/30 12:09:33;;;;;;;3.03;0.70;;;15.90;60.70;;;;;;5142310;27;34150;-78
2021/12/30 12:12:04;;;;;;;1.98;0.70;;;15.80;60.40;;;;;;5146644;27;34156;-79
2021/12/30 12:14:36;;;;;;;2.05;0.70;;;15.80;62.00;;;;;;5154033;27;35520;-78
2021/12/30 12:17:08;;;;;;;1.17;0.65;;;15.80;61.30;;;;;;5170123;27;34208;-79
2021/12/30 12:19:41;;;;;;;2.97;0.90;;;15.80;61.20;;;;;;5171049;27;34410;-78
2021/12/30 12:22:25;;;;;;;0.88;0.55;;;15.70;61.20;;;;;;5152839;27;34124;-79
2021/12/30 12:25:14;;;;;;;1.95;0.75;;;15.70;61.10;;;;;;5170117;27;36458;-78
2021/12/30 12:27:46;;;;;;;1.13;0.77;;;15.60;61.20;;;;;;5137032;27;34217;-78
2021/12/30 12:30:29;;;;;;;1.75;0.90;;;15.60;61.20;;;;;;5153889;27;34315;-78
2021/12/30 12:32:57;;;;;;;1.17;0.43;;;15.60;60.70;;;;;;5169839;27;33971;-78
2021/12/30 12:35:26;;;;;;;3.30;0.80;;;15.60;61.30;;;;;;5169232;27;36340;-78
2021/12/30 12:37:56;;;;;;;2.15;0.68;;;15.50;61.30;;;;;;5169782;27;34268;-78
2021/12/30 12:40:27;;;;;;;0.70;0.70;;;15.50;61.20;;;;;;5169498;27;34447;-78
2021/12/30 12:42:56;;;;;;;1.42;0.65;;;15.50;61.40;;;;;;5169286;27;34545;-79
2021/12/30 12:45:41;;;;;;;1.50;0.60;;;15.50;61.40;;;;;;5152174;27;35782;-78
2021/12/30 12:48:25;;;;;;;1.85;0.70;;;15.50;61.00;;;;;;5171599;27;34173;-78
2021/12/30 12:50:57;;;;;;;0.95;0.52;;;15.50;61.00;;;;;;5173126;27;34153;-78
2021/12/30 12:53:42;;;;;;;2.80;0.70;;;15.50;61.20;;;;;;5174232;27;34132;-77